createdAt,value
2022-11-17T00:02:19.392Z,74.80
2022-11-17T00:04:58.000Z,75.00
2022-11-17T00:07:35.099Z,74.70
2022-11-17T00:10:22.524Z,74.70
2022-11-17T00:13:07.848Z,74.80
2022-11-17T00:16:04.219Z,74.70
2022-11-17T00:19:00.205Z,75.10
2022-11-17T00:21:32.382Z,74.80
2022-11-17T00:24:10.527Z,74.60
2022-11-17T00:27:01.088Z,74.60
2022-11-17T00:29:44.418Z,74.80
2022-11-17T00:32:40.386Z,74.70
2022-11-17T00:35:18.280Z,74.70
2022-11-17T00:38:15.786Z,75.00
2022-11-17T00:40:45.588Z,74.80
2022-11-17T00:43:27.647Z,74.80
2022-11-17T00:46:16.537Z,75.10
2022-11-17T00:48:49.428Z,75.10
2022-11-17T00:51:20.289Z,75.00
2022-11-17T00:54:05.842Z,75.00
2022-11-17T00:56:35.023Z,75.20
2022-11-17T00:59:04.195Z,75.00
2022-11-17T01:01:45.793Z,75.10
2022-11-17T01:04:12.905Z,75.10
2022-11-17T01:06:55.519Z,75.60
2022-11-17T01:09:35.773Z,74.80
2022-11-17T01:12:22.738Z,74.80
2022-11-17T01:17:49.752Z,75.40
2022-11-17T01:20:28.809Z,75.20
2022-11-17T01:23:02.474Z,75.50
2022-11-17T01:25:47.639Z,75.50
2022-11-17T01:28:27.181Z,75.80
2022-11-17T01:31:06.941Z,75.80
2022-11-17T01:33:37.149Z,75.70
2022-11-17T01:36:07.173Z,75.60
2022-11-17T01:38:59.612Z,75.70
2022-11-17T01:41:36.771Z,75.90
2022-11-17T01:44:51.229Z,76.20
2022-11-17T01:47:58.178Z,76.00
2022-11-17T01:50:55.870Z,75.60
2022-11-17T01:53:31.155Z,75.90
2022-11-17T01:56:06.643Z,75.50
2022-11-17T01:59:00.545Z,75.70
2022-11-17T02:01:57.619Z,75.80
2022-11-17T02:04:37.901Z,75.80
2022-11-17T02:07:38.055Z,76.10
2022-11-17T02:10:16.421Z,76.30
2022-11-17T02:12:54.414Z,75.80
2022-11-17T02:15:31.166Z,75.70
2022-11-17T02:18:05.016Z,75.70
2022-11-17T02:20:47.252Z,75.80
2022-11-17T02:23:53.154Z,75.70
2022-11-17T02:27:06.252Z,76.00
2022-11-17T02:29:59.999Z,76.10
2022-11-17T02:33:00.411Z,75.80
2022-11-17T02:36:10.204Z,76.10
2022-11-17T02:39:24.903Z,76.20
2022-11-17T02:42:35.221Z,75.90
2022-11-17T02:45:18.156Z,75.80
2022-11-17T02:47:57.913Z,75.70
2022-11-17T02:50:28.815Z,75.80
2022-11-17T02:52:57.583Z,75.90
2022-11-17T02:55:47.167Z,75.90
2022-11-17T02:58:27.310Z,75.90
2022-11-17T03:01:05.295Z,76.20
2022-11-17T03:03:48.836Z,76.30
2022-11-17T03:06:52.548Z,76.40
2022-11-17T03:09:36.188Z,76.60
2022-11-17T03:12:21.982Z,76.20
2022-11-17T03:15:12.272Z,76.30
2022-11-17T03:17:59.255Z,76.30
2022-11-17T03:20:43.001Z,76.30
2022-11-17T03:23:34.946Z,76.10
2022-11-17T03:26:14.841Z,76.60
2022-11-17T03:28:52.814Z,76.10
2022-11-17T03:32:01.386Z,76.20
2022-11-17T03:34:35.874Z,76.10
2022-11-17T03:37:13.182Z,76.00
2022-11-17T03:40:25.992Z,76.00
2022-11-17T03:42:57.359Z,76.50
2022-11-17T03:45:51.846Z,76.10
2022-11-17T03:48:49.337Z,76.10
2022-11-17T03:51:30.630Z,76.50
2022-11-17T03:54:02.549Z,76.30
2022-11-17T03:57:13.630Z,76.30
2022-11-17T03:59:54.369Z,76.60
2022-11-17T04:02:35.573Z,76.40
2022-11-17T04:05:13.699Z,76.60
2022-11-17T04:07:53.932Z,76.40
2022-11-17T04:10:37.853Z,76.40
2022-11-17T04:13:33.805Z,76.00
2022-11-17T04:16:29.757Z,76.20
2022-11-17T04:19:03.749Z,75.70
2022-11-17T04:21:56.608Z,75.20
2022-11-17T04:24:30.180Z,75.60
2022-11-17T04:27:18.421Z,76.00
2022-11-17T04:30:01.452Z,76.30
2022-11-17T04:32:36.045Z,76.50
2022-11-17T04:35:13.945Z,76.60
2022-11-17T04:37:53.408Z,76.70
2022-11-17T04:41:06.685Z,76.80
2022-11-17T04:43:41.724Z,77.00
2022-11-17T04:46:15.824Z,76.60
2022-11-17T04:48:50.717Z,76.70
2022-11-17T04:51:29.443Z,76.70
2022-11-17T04:54:15.860Z,76.70
2022-11-17T04:59:44.354Z,76.60
2022-11-17T05:02:16.996Z,76.60
2022-11-17T05:05:09.168Z,76.60
2022-11-17T05:07:49.489Z,76.80
2022-11-17T05:10:58.082Z,76.60
2022-11-17T05:13:42.741Z,76.60
2022-11-17T05:16:30.496Z,76.50
2022-11-17T05:18:59.584Z,76.60
2022-11-17T05:21:48.855Z,76.60
2022-11-17T05:24:19.851Z,76.80
2022-11-17T05:27:00.094Z,76.70
2022-11-17T05:29:37.134Z,76.90
2022-11-17T05:32:16.843Z,76.80
2022-11-17T05:34:56.192Z,76.80
2022-11-17T05:37:34.619Z,77.00
2022-11-17T05:40:16.260Z,76.80
2022-11-17T05:43:12.193Z,76.80
2022-11-17T05:45:53.602Z,76.80
2022-11-17T05:48:29.028Z,77.00
2022-11-17T05:51:19.193Z,76.80
2022-11-17T05:53:52.817Z,76.70
2022-11-17T05:56:24.580Z,76.70
2022-11-17T05:59:39.386Z,76.70
2022-11-17T06:02:35.964Z,77.00
2022-11-17T06:05:13.318Z,76.70
2022-11-17T06:07:52.055Z,76.50
2022-11-17T06:10:21.668Z,76.50
2022-11-17T06:13:08.984Z,76.60
2022-11-17T06:16:15.197Z,76.70
2022-11-17T06:18:55.340Z,76.90
2022-11-17T06:22:04.432Z,76.60
2022-11-17T06:24:23.291Z,76.90
2022-11-17T06:27:00.631Z,76.20
2022-11-17T06:29:42.399Z,76.30
2022-11-17T06:32:13.698Z,76.30
2022-11-17T06:35:02.484Z,76.20
2022-11-17T06:37:32.922Z,76.00
2022-11-17T06:40:05.131Z,75.90
2022-11-17T06:42:56.194Z,75.90
2022-11-17T06:45:40.937Z,75.60
2022-11-17T06:48:22.579Z,75.60
2022-11-17T06:51:03.367Z,75.50
2022-11-17T06:54:08.435Z,75.40
2022-11-17T06:56:48.580Z,75.20
2022-11-17T06:59:25.083Z,75.00
2022-11-17T07:02:04.755Z,74.90
2022-11-17T07:04:43.163Z,74.70
2022-11-17T07:07:18.315Z,74.70
2022-11-17T07:12:34.834Z,74.50
2022-11-17T07:15:22.663Z,74.20
2022-11-17T07:17:56.795Z,74.10
2022-11-17T07:20:30.854Z,74.10
2022-11-17T07:23:06.043Z,74.00
2022-11-17T07:25:32.732Z,73.80
2022-11-17T07:28:15.871Z,73.80
2022-11-17T07:33:41.413Z,73.80
2022-11-17T07:36:27.993Z,73.60
2022-11-17T07:38:57.212Z,73.70
2022-11-17T07:41:28.453Z,73.70
2022-11-17T07:44:21.691Z,73.70
2022-11-17T07:46:54.401Z,73.80
2022-11-17T07:49:34.100Z,73.80
2022-11-17T07:52:13.923Z,73.80
2022-11-17T07:54:48.624Z,73.80
2022-11-17T07:57:23.223Z,73.90
2022-11-17T07:59:58.551Z,73.90
2022-11-17T08:02:32.632Z,74.00
2022-11-17T08:05:17.555Z,74.10
2022-11-17T08:08:23.318Z,74.00
2022-11-17T08:10:56.828Z,74.20
2022-11-17T08:16:08.739Z,74.20
2022-11-17T08:19:07.378Z,74.30
2022-11-17T08:21:42.893Z,74.50
2022-11-17T08:24:19.883Z,74.60
2022-11-17T08:26:56.606Z,74.70
2022-11-17T08:29:28.666Z,74.70
2022-11-17T08:32:06.230Z,74.90
2022-11-17T08:34:32.933Z,75.20
2022-11-17T08:37:10.233Z,75.00
2022-11-17T08:39:40.941Z,74.90
2022-11-17T08:42:20.313Z,74.80
2022-11-17T08:44:55.530Z,74.80
2022-11-17T08:47:22.143Z,74.50
2022-11-17T08:50:00.367Z,74.30
2022-11-17T08:52:48.327Z,74.20
2022-11-17T08:55:19.463Z,73.90
2022-11-17T08:57:46.260Z,73.80
2022-11-17T09:00:23.252Z,73.30
2022-11-17T09:02:56.260Z,73.00
2022-11-17T09:05:31.147Z,72.80
2022-11-17T09:08:22.790Z,72.70
2022-11-17T09:11:04.597Z,72.70
2022-11-17T09:13:48.113Z,72.60
2022-11-17T09:16:38.994Z,72.70
2022-11-17T09:19:05.743Z,72.70
2022-11-17T09:21:34.660Z,72.60
2022-11-17T09:24:24.005Z,72.40
2022-11-17T09:27:00.204Z,72.30
2022-11-17T09:29:43.232Z,72.40
2022-11-17T09:32:18.236Z,72.40
2022-11-17T09:35:04.151Z,72.40
2022-11-17T09:37:39.288Z,72.30
2022-11-17T09:40:22.117Z,72.00
2022-11-17T09:42:56.923Z,71.00
2022-11-17T09:45:36.382Z,71.20
2022-11-17T09:48:42.785Z,70.70
2022-11-17T09:51:25.840Z,70.50
2022-11-17T09:54:03.987Z,70.60
2022-11-17T09:56:41.453Z,69.70
2022-11-17T09:59:31.794Z,69.90
2022-11-17T10:02:20.601Z,68.80
2022-11-17T10:04:59.575Z,68.40
2022-11-17T10:07:57.086Z,68.00
2022-11-17T10:10:44.497Z,68.10
2022-11-17T10:13:34.464Z,68.00
2022-11-17T10:16:18.208Z,68.00
2022-11-17T10:18:58.118Z,67.90
2022-11-17T10:21:37.748Z,67.60
2022-11-17T10:24:30.547Z,67.10
2022-11-17T10:27:08.562Z,67.10
2022-11-17T10:30:21.424Z,66.90
2022-11-17T10:33:23.565Z,65.60
2022-11-17T10:36:00.288Z,65.60
2022-11-17T10:38:58.196Z,66.00
2022-11-17T10:41:43.459Z,66.00
2022-11-17T10:44:14.961Z,65.80
2022-11-17T10:47:07.257Z,65.60
2022-11-17T10:49:43.725Z,64.90
2022-11-17T10:52:31.976Z,65.10
2022-11-17T10:55:46.598Z,64.70
2022-11-17T10:58:35.307Z,64.80
2022-11-17T11:01:07.299Z,65.10
2022-11-17T11:03:48.773Z,65.40
2022-11-17T11:06:39.013Z,65.50
2022-11-17T11:09:40.829Z,64.90
2022-11-17T11:12:20.075Z,64.80
2022-11-17T11:15:04.704Z,64.70
2022-11-17T11:17:50.090Z,64.80
2022-11-17T11:20:53.533Z,65.00
2022-11-17T11:23:31.450Z,63.70
2022-11-17T11:26:22.668Z,64.10
2022-11-17T11:29:22.861Z,63.70
2022-11-17T11:32:17.385Z,63.20
2022-11-17T11:35:24.544Z,63.10
2022-11-17T11:38:23.965Z,62.80
2022-11-17T11:41:24.679Z,63.20
2022-11-17T11:44:33.494Z,62.90
2022-11-17T11:47:42.463Z,63.20
2022-11-17T11:50:26.213Z,62.90
2022-11-17T11:53:21.201Z,63.80
2022-11-17T11:56:45.097Z,64.10
2022-11-17T11:59:43.185Z,64.10
2022-11-17T12:02:25.512Z,63.40
2022-11-17T12:05:38.761Z,64.00
2022-11-17T12:08:20.686Z,64.00
2022-11-17T12:11:25.567Z,63.80
2022-11-17T12:14:13.547Z,63.90
2022-11-17T12:17:01.966Z,63.90
2022-11-17T12:20:15.890Z,63.50
2022-11-17T12:23:09.315Z,62.90
2022-11-17T12:25:57.687Z,63.20
2022-11-17T12:29:16.672Z,63.50
2022-11-17T12:31:50.848Z,63.20
2022-11-17T12:34:39.338Z,64.10
2022-11-17T12:37:29.085Z,63.10
2022-11-17T12:40:52.102Z,62.90
2022-11-17T12:43:32.820Z,62.30
2022-11-17T12:49:08.873Z,62.80
2022-11-17T12:51:58.385Z,62.10
2022-11-17T12:54:54.642Z,61.90
2022-11-17T12:57:37.171Z,61.60
2022-11-17T13:00:13.930Z,61.70
2022-11-17T13:03:16.741Z,62.10
2022-11-17T13:06:38.480Z,61.20
2022-11-17T13:09:15.624Z,61.30
2022-11-17T13:12:06.067Z,61.60
2022-11-17T13:15:23.278Z,61.40
2022-11-17T13:18:04.785Z,61.20
2022-11-17T13:20:35.876Z,62.00
2022-11-17T13:23:20.474Z,62.10
2022-11-17T13:25:50.801Z,61.30
2022-11-17T13:28:54.344Z,61.50
2022-11-17T13:31:32.331Z,61.70
2022-11-17T13:34:30.823Z,61.40
2022-11-17T13:37:31.488Z,60.80
2022-11-17T13:40:22.823Z,61.40
2022-11-17T13:42:58.422Z,61.20
2022-11-17T13:45:39.085Z,60.60
2022-11-17T13:48:41.769Z,61.00
2022-11-17T13:51:29.589Z,60.40
2022-11-17T13:54:10.109Z,60.70
2022-11-17T13:56:46.259Z,61.20
2022-11-17T13:59:59.051Z,60.80
2022-11-17T14:02:39.067Z,60.50
2022-11-17T14:05:19.429Z,61.10
2022-11-17T14:08:11.431Z,61.20
2022-11-17T14:10:48.659Z,60.80
2022-11-17T14:13:43.412Z,61.00
2022-11-17T14:16:51.218Z,60.20
2022-11-17T14:19:41.947Z,60.50
2022-11-17T14:22:13.191Z,60.50
2022-11-17T14:24:44.737Z,60.80
2022-11-17T14:28:00.719Z,60.50
2022-11-17T14:30:35.287Z,59.70
2022-11-17T14:33:13.818Z,60.50
2022-11-17T14:35:45.289Z,60.40
2022-11-17T14:38:28.578Z,60.20
2022-11-17T14:40:56.446Z,60.40
2022-11-17T14:43:24.960Z,60.40
2022-11-17T14:46:08.499Z,60.00
2022-11-17T14:48:39.522Z,60.00
2022-11-17T14:51:18.111Z,60.00
2022-11-17T14:53:54.016Z,59.90
2022-11-17T14:56:30.927Z,59.80
2022-11-17T14:59:06.000Z,59.80
2022-11-17T15:01:38.374Z,59.90
2022-11-17T15:04:48.293Z,59.90
2022-11-17T15:07:12.861Z,60.00
2022-11-17T15:09:45.302Z,60.20
2022-11-17T15:12:18.805Z,60.00
2022-11-17T15:17:49.636Z,60.20
2022-11-17T15:20:25.844Z,60.20
2022-11-17T15:23:04.976Z,60.10
2022-11-17T15:26:00.098Z,60.10
2022-11-17T15:28:44.364Z,60.20
2022-11-17T15:31:45.126Z,60.00
2022-11-17T15:34:29.470Z,60.20
2022-11-17T15:37:16.154Z,60.30
2022-11-17T15:39:43.796Z,60.60
2022-11-17T15:42:21.587Z,60.50
2022-11-17T15:44:53.753Z,60.50
2022-11-17T15:47:30.292Z,60.50
2022-11-17T15:50:13.409Z,60.60
2022-11-17T15:55:38.164Z,60.80
2022-11-17T15:58:19.567Z,60.80
2022-11-17T16:01:22.937Z,60.90
2022-11-17T16:04:02.172Z,60.60
2022-11-17T16:06:38.744Z,60.80
2022-11-17T16:09:29.708Z,60.70
2022-11-17T16:12:04.156Z,60.70
2022-11-17T16:14:38.114Z,60.80
2022-11-17T16:17:19.953Z,60.90
2022-11-17T16:19:52.561Z,60.90
2022-11-17T16:22:28.310Z,60.90
2022-11-17T16:25:00.183Z,61.10
2022-11-17T16:27:40.291Z,61.10
2022-11-17T16:30:19.004Z,61.20
2022-11-17T16:35:42.886Z,61.50
2022-11-17T16:38:22.724Z,61.50
2022-11-17T16:40:56.113Z,61.60
2022-11-17T16:43:48.078Z,61.80
2022-11-17T16:46:40.857Z,61.90
2022-11-17T16:49:15.409Z,61.90
2022-11-17T16:52:10.075Z,62.20
2022-11-17T16:54:39.226Z,62.30
2022-11-17T17:00:00.687Z,62.70
2022-11-17T17:02:33.506Z,62.80
2022-11-17T17:05:24.925Z,63.10
2022-11-17T17:07:53.802Z,63.20
2022-11-17T17:10:32.477Z,63.10
2022-11-17T17:13:03.441Z,63.00
2022-11-17T17:15:35.983Z,63.10
2022-11-17T17:18:28.347Z,63.20
2022-11-17T17:21:04.061Z,63.40
2022-11-17T17:23:46.177Z,63.60
2022-11-17T17:26:23.375Z,63.80
2022-11-17T17:29:05.939Z,64.00
2022-11-17T17:31:41.151Z,64.20
2022-11-17T17:34:21.634Z,64.30
2022-11-17T17:37:42.599Z,64.40
2022-11-17T17:40:02.587Z,64.30
2022-11-17T17:43:04.497Z,64.30
2022-11-17T17:45:46.520Z,64.20
2022-11-17T17:48:35.009Z,64.20
2022-11-17T17:51:31.431Z,64.90
2022-11-17T17:54:09.810Z,64.50
2022-11-17T17:56:37.748Z,64.60
2022-11-17T17:59:12.040Z,64.60
2022-11-17T18:01:54.455Z,64.70
2022-11-17T18:04:31.099Z,64.80
2022-11-17T18:07:07.160Z,64.80
2022-11-17T18:09:51.651Z,64.90
2022-11-17T18:12:27.726Z,64.90
2022-11-17T18:15:06.955Z,65.10
2022-11-17T18:17:34.613Z,65.10
2022-11-17T18:20:07.891Z,65.20
2022-11-17T18:25:35.091Z,65.40
2022-11-17T18:28:09.654Z,65.50
2022-11-17T18:30:47.593Z,66.10
2022-11-17T18:33:18.500Z,65.60
2022-11-17T18:35:51.328Z,65.70
2022-11-17T18:38:28.515Z,65.80
2022-11-17T18:41:32.852Z,65.90
2022-11-17T18:44:07.696Z,66.20
2022-11-17T18:46:54.256Z,66.10
2022-11-17T18:49:41.424Z,66.30
2022-11-17T18:52:13.936Z,66.30
2022-11-17T18:54:47.403Z,66.30
2022-11-17T18:57:24.367Z,66.40
2022-11-17T19:00:12.862Z,66.40
2022-11-17T19:02:47.147Z,66.50
2022-11-17T19:05:33.661Z,66.40
2022-11-17T19:08:36.563Z,66.40
2022-11-17T19:11:26.112Z,66.50
2022-11-17T19:14:06.613Z,66.50
2022-11-17T19:16:52.418Z,66.60
2022-11-17T19:19:58.507Z,66.60
2022-11-17T19:22:35.115Z,66.40
2022-11-17T19:25:06.785Z,66.50
2022-11-17T19:27:42.303Z,66.70
2022-11-17T19:30:22.513Z,66.80
2022-11-17T19:32:50.106Z,66.90
2022-11-17T19:35:23.017Z,66.90
2022-11-17T19:38:01.963Z,67.10
2022-11-17T19:40:40.634Z,67.10
2022-11-17T19:43:27.766Z,67.10
2022-11-17T19:46:07.981Z,67.30
2022-11-17T19:48:49.947Z,67.30
2022-11-17T19:51:31.855Z,67.30
2022-11-17T19:54:04.703Z,67.50
2022-11-17T19:56:44.792Z,67.60
2022-11-17T19:59:18.928Z,67.60
2022-11-17T20:01:57.483Z,67.50
2022-11-17T20:04:42.386Z,67.70
2022-11-17T20:07:19.638Z,67.90
2022-11-17T20:10:14.488Z,67.90
2022-11-17T20:12:46.954Z,68.00
2022-11-17T20:15:34.510Z,67.80
2022-11-17T20:18:04.607Z,67.90
2022-11-17T20:20:34.923Z,67.70
2022-11-17T20:23:17.351Z,67.50
2022-11-17T20:26:13.051Z,67.40
2022-11-17T20:28:51.891Z,67.30
2022-11-17T20:31:31.895Z,67.20
2022-11-17T20:34:21.867Z,67.20
2022-11-17T20:36:55.157Z,67.10
2022-11-17T20:39:35.952Z,67.00
2022-11-17T20:42:28.238Z,67.00
2022-11-17T20:45:02.363Z,67.00
2022-11-17T20:47:43.347Z,66.90
2022-11-17T20:50:14.669Z,66.90
2022-11-17T20:52:50.970Z,66.90
2022-11-17T20:55:43.789Z,66.90
2022-11-17T20:58:17.670Z,67.00
2022-11-17T21:00:51.647Z,67.00
2022-11-17T21:03:30.383Z,67.00
2022-11-17T21:06:00.529Z,67.00
2022-11-17T21:08:32.770Z,67.10
2022-11-17T21:11:06.885Z,67.20
2022-11-17T21:13:54.117Z,67.20
2022-11-17T21:16:20.676Z,67.30
2022-11-17T21:18:51.794Z,67.30
2022-11-17T21:21:27.889Z,67.40
2022-11-17T21:23:57.687Z,67.30
2022-11-17T21:26:30.589Z,67.40
2022-11-17T21:29:20.272Z,67.30
2022-11-17T21:31:49.229Z,67.20
2022-11-17T21:34:16.621Z,67.10
2022-11-17T21:36:44.530Z,67.00
2022-11-17T21:39:16.943Z,66.90
2022-11-17T21:41:46.592Z,66.80
2022-11-17T21:44:14.101Z,66.80
2022-11-17T21:46:40.651Z,66.80
2022-11-17T21:49:09.829Z,66.70
2022-11-17T21:51:38.887Z,66.70
2022-11-17T21:54:13.519Z,66.70
2022-11-17T21:56:40.606Z,66.70
2022-11-17T21:59:12.100Z,66.70
2022-11-17T22:01:38.965Z,66.80
2022-11-17T22:04:06.760Z,66.80
2022-11-17T22:06:38.834Z,66.80
2022-11-17T22:09:05.415Z,66.80
2022-11-17T22:11:38.449Z,66.90
2022-11-17T22:14:12.511Z,67.00
2022-11-17T22:16:49.576Z,67.00
2022-11-17T22:19:17.020Z,67.10
2022-11-17T22:21:48.079Z,67.20
2022-11-17T22:24:17.701Z,67.40
2022-11-17T22:26:47.971Z,67.40
2022-11-17T22:29:16.117Z,67.60
2022-11-17T22:31:51.673Z,67.60
2022-11-17T22:34:25.927Z,67.60
2022-11-17T22:36:54.887Z,67.60
2022-11-17T22:39:22.867Z,67.70
2022-11-17T22:41:49.389Z,67.80
2022-11-17T22:44:20.518Z,67.70
2022-11-17T22:46:49.887Z,67.70
2022-11-17T22:49:24.754Z,67.60
2022-11-17T22:52:08.591Z,67.60
2022-11-17T22:54:36.139Z,67.60
2022-11-17T22:57:02.660Z,67.60
2022-11-17T22:59:32.100Z,67.70
2022-11-17T23:02:24.374Z,67.70
2022-11-17T23:04:56.440Z,67.60
2022-11-17T23:07:26.031Z,67.60
2022-11-17T23:09:52.679Z,67.60
2022-11-17T23:12:19.198Z,67.60
2022-11-17T23:14:50.656Z,67.60
2022-11-17T23:17:23.775Z,67.60
2022-11-17T23:19:54.891Z,67.60
2022-11-17T23:22:26.751Z,67.70
2022-11-17T23:25:03.897Z,67.60
2022-11-17T23:27:30.547Z,67.60
2022-11-17T23:29:58.348Z,67.60
2022-11-17T23:32:25.722Z,67.60
2022-11-17T23:34:53.951Z,67.60
2022-11-17T23:37:20.555Z,67.60
2022-11-17T23:39:49.761Z,67.60
2022-11-17T23:42:16.324Z,67.60
2022-11-17T23:44:42.894Z,67.60
2022-11-17T23:47:11.635Z,67.60
2022-11-17T23:49:40.823Z,67.60
2022-11-17T23:52:09.310Z,67.60
2022-11-17T23:54:38.939Z,67.50
2022-11-17T23:57:08.752Z,67.60
2022-11-17T23:59:37.735Z,67.60
